sensor_id;sensor_type;location;lat;lon;timestamp;pressure;altitude;pressure_sealevel;temperature;humidity
53719;BME280;39616;48.872;9.390;2023-05-29T00:01:37;98356.00;;;12.09;81.06
53719;BME280;39616;48.872;9.390;2023-05-29T00:04:08;98353.28;;;12.09;80.91
53719;BME280;39616;48.872;9.390;2023-05-29T00:06:38;98350.03;;;12.07;81.01
53719;BME280;39616;48.872;9.390;2023-05-29T00:09:08;98350.38;;;12.06;81.17
53719;BME280;39616;48.872;9.390;2023-05-29T00:11:39;98358.53;;;12.06;81.61
53719;BME280;39616;48.872;9.390;2023-05-29T00:14:10;98360.13;;;12.07;81.69
53719;BME280;39616;48.872;9.390;2023-05-29T00:16:43;98357.19;;;12.03;82.08
53719;BME280;39616;48.872;9.390;2023-05-29T00:19:14;98350.97;;;12.03;82.44
53719;BME280;39616;48.872;9.390;2023-05-29T00:21:47;98347.66;;;12.06;82.75
53719;BME280;39616;48.872;9.390;2023-05-29T00:24:18;98346.03;;;12.05;82.71
53719;BME280;39616;48.872;9.390;2023-05-29T00:26:48;98340.09;;;12.03;83.17
53719;BME280;39616;48.872;9.390;2023-05-29T00:29:18;98340.50;;;11.96;82.15
53719;BME280;39616;48.872;9.390;2023-05-29T00:31:51;98331.69;;;11.91;82.09
53719;BME280;39616;48.872;9.390;2023-05-29T00:34:23;98337.50;;;11.84;82.98
53719;BME280;39616;48.872;9.390;2023-05-29T00:36:53;98338.88;;;11.81;84.62
53719;BME280;39616;48.872;9.390;2023-05-29T00:39:25;98332.66;;;11.81;84.05
53719;BME280;39616;48.872;9.390;2023-05-29T00:41:56;98337.00;;;11.82;84.05
53719;BME280;39616;48.872;9.390;2023-05-29T00:44:26;98330.16;;;11.84;83.98
53719;BME280;39616;48.872;9.390;2023-05-29T00:46:57;98332.09;;;11.84;84.66
53719;BME280;39616;48.872;9.390;2023-05-29T00:49:28;98328.75;;;11.87;84.42
53719;BME280;39616;48.872;9.390;2023-05-29T00:51:59;98331.06;;;11.94;84.04
53719;BME280;39616;48.872;9.390;2023-05-29T00:54:30;98328.22;;;11.99;82.10
53719;BME280;39616;48.872;9.390;2023-05-29T00:57:01;98326.69;;;12.06;79.84
53719;BME280;39616;48.872;9.390;2023-05-29T00:59:33;98326.81;;;12.15;78.32
53719;BME280;39616;48.872;9.390;2023-05-29T01:02:04;98323.81;;;12.25;76.90
53719;BME280;39616;48.872;9.390;2023-05-29T01:04:34;98322.38;;;12.42;74.17
53719;BME280;39616;48.872;9.390;2023-05-29T01:07:06;98311.41;;;12.55;72.83
53719;BME280;39616;48.872;9.390;2023-05-29T01:09:37;98320.81;;;12.72;71.36
53719;BME280;39616;48.872;9.390;2023-05-29T01:12:22;98319.81;;;12.90;69.87
53719;BME280;39616;48.872;9.390;2023-05-29T01:28:52;98317.88;;;13.44;65.77
53719;BME280;39616;48.872;9.390;2023-05-29T01:31:25;98311.13;;;13.50;65.70
53719;BME280;39616;48.872;9.390;2023-05-29T01:33:58;98312.59;;;13.57;65.33
53719;BME280;39616;48.872;9.390;2023-05-29T01:36:29;98312.28;;;13.58;65.13
53719;BME280;39616;48.872;9.390;2023-05-29T01:39:00;98311.03;;;13.64;64.92
53719;BME280;39616;48.872;9.390;2023-05-29T01:41:31;98309.91;;;13.65;64.94
53719;BME280;39616;48.872;9.390;2023-05-29T01:44:05;98309.44;;;13.63;64.92
53719;BME280;39616;48.872;9.390;2023-05-29T01:46:39;98318.06;;;13.57;65.23
53719;BME280;39616;48.872;9.390;2023-05-29T01:49:11;98312.88;;;13.46;65.86
53719;BME280;39616;48.872;9.390;2023-05-29T01:51:42;98311.75;;;13.39;66.56
53719;BME280;39616;48.872;9.390;2023-05-29T01:54:13;98321.44;;;13.22;67.61
53719;BME280;39616;48.872;9.390;2023-05-29T01:56:45;98320.97;;;12.98;69.97
53719;BME280;39616;48.872;9.390;2023-05-29T01:59:17;98327.44;;;12.79;71.20
53719;BME280;39616;48.872;9.390;2023-05-29T02:01:47;98319.16;;;12.62;71.91
53719;BME280;39616;48.872;9.390;2023-05-29T02:04:18;98331.00;;;12.44;72.88
53719;BME280;39616;48.872;9.390;2023-05-29T02:06:48;98322.75;;;12.26;74.42
53719;BME280;39616;48.872;9.390;2023-05-29T02:09:18;98326.81;;;12.15;74.63
53719;BME280;39616;48.872;9.390;2023-05-29T02:11:49;98323.59;;;11.99;75.22
53719;BME280;39616;48.872;9.390;2023-05-29T02:14:19;98324.84;;;11.93;74.93
53719;BME280;39616;48.872;9.390;2023-05-29T02:16:50;98332.78;;;11.76;76.87
53719;BME280;39616;48.872;9.390;2023-05-29T02:19:21;98328.25;;;11.71;77.04
53719;BME280;39616;48.872;9.390;2023-05-29T02:21:55;98329.66;;;11.69;77.99
53719;BME280;39616;48.872;9.390;2023-05-29T02:24:25;98327.75;;;11.55;77.93
53719;BME280;39616;48.872;9.390;2023-05-29T02:26:56;98328.47;;;11.47;79.65
53719;BME280;39616;48.872;9.390;2023-05-29T02:29:26;98328.16;;;11.35;79.92
53719;BME280;39616;48.872;9.390;2023-05-29T02:31:56;98328.94;;;11.22;79.87
53719;BME280;39616;48.872;9.390;2023-05-29T02:34:27;98334.88;;;11.10;80.81
53719;BME280;39616;48.872;9.390;2023-05-29T02:36:57;98332.34;;;11.00;81.83
53719;BME280;39616;48.872;9.390;2023-05-29T02:39:28;98333.94;;;10.87;82.70
53719;BME280;39616;48.872;9.390;2023-05-29T02:41:58;98330.56;;;10.76;84.10
53719;BME280;39616;48.872;9.390;2023-05-29T02:44:28;98330.66;;;10.71;84.18
53719;BME280;39616;48.872;9.390;2023-05-29T02:46:58;98334.56;;;10.65;83.92
53719;BME280;39616;48.872;9.390;2023-05-29T02:49:29;98331.91;;;10.60;83.91
53719;BME280;39616;48.872;9.390;2023-05-29T02:51:59;98330.09;;;10.55;84.34
53719;BME280;39616;48.872;9.390;2023-05-29T02:54:30;98326.47;;;10.46;86.47
53719;BME280;39616;48.872;9.390;2023-05-29T02:57:00;98334.16;;;10.39;86.90
53719;BME280;39616;48.872;9.390;2023-05-29T02:59:32;98331.25;;;10.35;86.73
53719;BME280;39616;48.872;9.390;2023-05-29T03:02:02;98330.50;;;10.30;88.07
53719;BME280;39616;48.872;9.390;2023-05-29T03:04:33;98319.72;;;10.25;89.11
53719;BME280;39616;48.872;9.390;2023-05-29T03:07:03;98328.72;;;10.20;89.39
53719;BME280;39616;48.872;9.390;2023-05-29T03:09:33;98327.69;;;10.16;88.54
53719;BME280;39616;48.872;9.390;2023-05-29T03:12:04;98333.94;;;10.16;88.34
53719;BME280;39616;48.872;9.390;2023-05-29T03:14:35;98321.91;;;10.04;89.18
53719;BME280;39616;48.872;9.390;2023-05-29T03:17:06;98329.53;;;10.02;90.05
53719;BME280;39616;48.872;9.390;2023-05-29T03:19:39;98325.56;;;9.94;91.03
53719;BME280;39616;48.872;9.390;2023-05-29T03:22:10;98332.38;;;9.91;91.63
53719;BME280;39616;48.872;9.390;2023-05-29T03:24:40;98327.84;;;9.87;93.05
53719;BME280;39616;48.872;9.390;2023-05-29T03:27:10;98325.41;;;9.85;92.71
53719;BME280;39616;48.872;9.390;2023-05-29T03:29:41;98327.31;;;9.85;92.71
53719;BME280;39616;48.872;9.390;2023-05-29T03:32:11;98331.41;;;9.82;92.71
53719;BME280;39616;48.872;9.390;2023-05-29T03:34:41;98332.50;;;9.81;93.49
53719;BME280;39616;48.872;9.390;2023-05-29T03:37:12;98333.09;;;9.78;93.17
53719;BME280;39616;48.872;9.390;2023-05-29T03:39:42;98328.78;;;9.77;92.96
53719;BME280;39616;48.872;9.390;2023-05-29T03:42:13;98332.59;;;9.76;92.49
53719;BME280;39616;48.872;9.390;2023-05-29T03:44:43;98335.34;;;9.71;93.76
53719;BME280;39616;48.872;9.390;2023-05-29T03:47:13;98334.09;;;9.63;93.92
53719;BME280;39616;48.872;9.390;2023-05-29T03:49:43;98323.31;;;9.58;94.02
53719;BME280;39616;48.872;9.390;2023-05-29T03:52:14;98338.25;;;9.56;95.40
53719;BME280;39616;48.872;9.390;2023-05-29T03:54:44;98340.16;;;9.55;95.33
53719;BME280;39616;48.872;9.390;2023-05-29T03:57:14;98343.66;;;9.56;95.79
53719;BME280;39616;48.872;9.390;2023-05-29T03:59:45;98343.09;;;9.59;96.50
53719;BME280;39616;48.872;9.390;2023-05-29T04:02:15;98333.81;;;9.65;97.07
53719;BME280;39616;48.872;9.390;2023-05-29T04:04:45;98344.78;;;9.74;95.78
53719;BME280;39616;48.872;9.390;2023-05-29T04:07:16;98355.19;;;9.85;95.92
53719;BME280;39616;48.872;9.390;2023-05-29T04:09:48;98361.44;;;10.05;94.32
53719;BME280;39616;48.872;9.390;2023-05-29T04:12:18;98361.47;;;10.24;94.07
53719;BME280;39616;48.872;9.390;2023-05-29T04:14:48;98362.06;;;10.39;92.37
53719;BME280;39616;48.872;9.390;2023-05-29T04:17:19;98358.25;;;10.40;90.12
53719;BME280;39616;48.872;9.390;2023-05-29T04:19:49;98365.28;;;10.42;90.27
53719;BME280;39616;48.872;9.390;2023-05-29T04:22:20;98368.22;;;10.45;89.89
53719;BME280;39616;48.872;9.390;2023-05-29T04:24:50;98373.03;;;10.48;89.62
53719;BME280;39616;48.872;9.390;2023-05-29T04:27:21;98374.47;;;10.46;89.99
53719;BME280;39616;48.872;9.390;2023-05-29T04:29:51;98383.00;;;10.53;90.36
53719;BME280;39616;48.872;9.390;2023-05-29T04:32:21;98380.88;;;10.69;90.39
53719;BME280;39616;48.872;9.390;2023-05-29T04:34:51;98385.03;;;10.80;90.20
53719;BME280;39616;48.872;9.390;2023-05-29T04:37:22;98382.06;;;10.95;89.24
53719;BME280;39616;48.872;9.390;2023-05-29T04:39:59;98392.66;;;11.10;89.00
53719;BME280;39616;48.872;9.390;2023-05-29T04:42:29;98387.84;;;11.21;86.78
53719;BME280;39616;48.872;9.390;2023-05-29T04:45:04;98386.47;;;11.37;85.44
53719;BME280;39616;48.872;9.390;2023-05-29T04:47:35;98391.00;;;11.56;84.62
53719;BME280;39616;48.872;9.390;2023-05-29T04:50:06;98388.69;;;11.63;84.22
53719;BME280;39616;48.872;9.390;2023-05-29T04:52:37;98399.38;;;11.73;83.15
53719;BME280;39616;48.872;9.390;2023-05-29T04:55:08;98392.94;;;11.69;82.34
53719;BME280;39616;48.872;9.390;2023-05-29T04:57:38;98399.47;;;11.68;82.29
53719;BME280;39616;48.872;9.390;2023-05-29T05:00:09;98400.97;;;11.74;82.47
53719;BME280;39616;48.872;9.390;2023-05-29T05:02:44;98391.13;;;11.78;82.70
53719;BME280;39616;48.872;9.390;2023-05-29T05:05:15;98396.69;;;11.87;82.32
53719;BME280;39616;48.872;9.390;2023-05-29T05:07:45;98395.16;;;11.95;81.97
53719;BME280;39616;48.872;9.390;2023-05-29T05:10:16;98409.03;;;12.07;81.29
53719;BME280;39616;48.872;9.390;2023-05-29T05:12:46;98405.38;;;12.25;80.80
53719;BME280;39616;48.872;9.390;2023-05-29T05:15:16;98406.56;;;12.47;79.89
53719;BME280;39616;48.872;9.390;2023-05-29T05:17:47;98409.22;;;12.61;78.67
53719;BME280;39616;48.872;9.390;2023-05-29T05:20:17;98401.69;;;12.80;77.96
53719;BME280;39616;48.872;9.390;2023-05-29T05:22:47;98406.47;;;12.97;77.14
53719;BME280;39616;48.872;9.390;2023-05-29T05:25:18;98400.94;;;13.11;77.25
53719;BME280;39616;48.872;9.390;2023-05-29T05:27:48;98402.03;;;13.23;76.49
53719;BME280;39616;48.872;9.390;2023-05-29T05:30:18;98414.25;;;13.35;75.71
53719;BME280;39616;48.872;9.390;2023-05-29T05:32:49;98408.41;;;13.50;75.07
53719;BME280;39616;48.872;9.390;2023-05-29T05:35:19;98406.53;;;13.59;74.73
53719;BME280;39616;48.872;9.390;2023-05-29T05:37:50;98409.44;;;13.63;73.33
53719;BME280;39616;48.872;9.390;2023-05-29T05:40:20;98415.44;;;13.82;72.75
53719;BME280;39616;48.872;9.390;2023-05-29T05:42:50;98407.91;;;13.88;71.78
53719;BME280;39616;48.872;9.390;2023-05-29T05:45:21;98408.59;;;14.02;71.21
53719;BME280;39616;48.872;9.390;2023-05-29T05:47:51;98410.75;;;14.22;71.19
53719;BME280;39616;48.872;9.390;2023-05-29T05:50:21;98418.63;;;14.33;70.46
53719;BME280;39616;48.872;9.390;2023-05-29T05:52:52;98415.94;;;14.50;70.16
53719;BME280;39616;48.872;9.390;2023-05-29T05:55:22;98424.59;;;14.61;69.30
53719;BME280;39616;48.872;9.390;2023-05-29T05:57:52;98422.84;;;14.65;69.29
53719;BME280;39616;48.872;9.390;2023-05-29T06:00:23;98420.91;;;14.83;68.62
53719;BME280;39616;48.872;9.390;2023-05-29T06:02:54;98422.19;;;14.94;68.48
53719;BME280;39616;48.872;9.390;2023-05-29T06:05:24;98431.03;;;15.00;68.92
53719;BME280;39616;48.872;9.390;2023-05-29T06:07:54;98438.59;;;15.03;66.62
53719;BME280;39616;48.872;9.390;2023-05-29T06:10:25;98437.00;;;14.84;67.02
53719;BME280;39616;48.872;9.390;2023-05-29T06:12:55;98435.03;;;15.02;67.36
53719;BME280;39616;48.872;9.390;2023-05-29T06:15:25;98435.84;;;15.11;65.26
53719;BME280;39616;48.872;9.390;2023-05-29T06:17:56;98436.16;;;15.18;64.46
53719;BME280;39616;48.872;9.390;2023-05-29T06:20:26;98427.63;;;15.29;66.06
53719;BME280;39616;48.872;9.390;2023-05-29T06:22:56;98435.91;;;15.58;65.18
53719;BME280;39616;48.872;9.390;2023-05-29T06:25:27;98431.09;;;15.55;65.34
53719;BME280;39616;48.872;9.390;2023-05-29T06:28:02;98438.78;;;15.70;64.70
53719;BME280;39616;48.872;9.390;2023-05-29T06:30:35;98438.63;;;16.05;63.73
53719;BME280;39616;48.872;9.390;2023-05-29T06:33:06;98441.84;;;16.07;63.37
53719;BME280;39616;48.872;9.390;2023-05-29T06:35:36;98449.09;;;16.33;64.91
53719;BME280;39616;48.872;9.390;2023-05-29T06:38:06;98454.34;;;16.17;64.80
53719;BME280;39616;48.872;9.390;2023-05-29T06:40:37;98456.81;;;16.31;64.69
53719;BME280;39616;48.872;9.390;2023-05-29T06:43:07;98456.00;;;16.39;63.52
53719;BME280;39616;48.872;9.390;2023-05-29T06:45:39;98455.03;;;16.64;63.21
53719;BME280;39616;48.872;9.390;2023-05-29T06:48:10;98463.00;;;16.99;64.04
53719;BME280;39616;48.872;9.390;2023-05-29T06:50:41;98465.91;;;17.15;62.01
53719;BME280;39616;48.872;9.390;2023-05-29T06:53:11;98469.72;;;17.23;62.71
53719;BME280;39616;48.872;9.390;2023-05-29T06:55:41;98472.25;;;17.28;60.92
53719;BME280;39616;48.872;9.390;2023-05-29T06:58:12;98464.94;;;17.20;61.06
53719;BME280;39616;48.872;9.390;2023-05-29T07:00:42;98473.34;;;17.14;61.48
53719;BME280;39616;48.872;9.390;2023-05-29T07:03:12;98474.47;;;17.13;61.73
53719;BME280;39616;48.872;9.390;2023-05-29T07:05:43;98473.16;;;17.65;61.41
53719;BME280;39616;48.872;9.390;2023-05-29T07:08:13;98470.94;;;17.79;59.26
53719;BME280;39616;48.872;9.390;2023-05-29T07:10:44;98470.28;;;17.95;58.74
53719;BME280;39616;48.872;9.390;2023-05-29T07:13:16;98476.44;;;17.79;59.20
53719;BME280;39616;48.872;9.390;2023-05-29T07:15:51;98471.06;;;17.95;56.69
53719;BME280;39616;48.872;9.390;2023-05-29T07:18:21;98466.06;;;17.97;58.03
53719;BME280;39616;48.872;9.390;2023-05-29T07:20:51;98468.34;;;18.20;57.20
53719;BME280;39616;48.872;9.390;2023-05-29T07:23:24;98465.59;;;18.32;56.32
53719;BME280;39616;48.872;9.390;2023-05-29T07:25:54;98464.41;;;18.82;55.62
53719;BME280;39616;48.872;9.390;2023-05-29T07:28:25;98469.59;;;18.71;56.94
53719;BME280;39616;48.872;9.390;2023-05-29T07:30:55;98469.78;;;19.19;55.65
53719;BME280;39616;48.872;9.390;2023-05-29T07:33:25;98466.28;;;19.34;55.40
53719;BME280;39616;48.872;9.390;2023-05-29T07:35:56;98464.44;;;19.82;55.20
53719;BME280;39616;48.872;9.390;2023-05-29T07:38:26;98463.00;;;20.52;53.93
53719;BME280;39616;48.872;9.390;2023-05-29T07:40:56;98473.22;;;20.86;52.58
53719;BME280;39616;48.872;9.390;2023-05-29T07:43:27;98468.44;;;21.03;51.38
53719;BME280;39616;48.872;9.390;2023-05-29T07:45:58;98471.69;;;20.89;51.97
53719;BME280;39616;48.872;9.390;2023-05-29T07:48:28;98471.13;;;20.99;51.74
53719;BME280;39616;48.872;9.390;2023-05-29T07:50:58;98467.13;;;21.16;51.54
53719;BME280;39616;48.872;9.390;2023-05-29T07:53:29;98470.06;;;20.68;52.41
53719;BME280;39616;48.872;9.390;2023-05-29T07:55:59;98475.63;;;20.88;52.93
53719;BME280;39616;48.872;9.390;2023-05-29T07:58:30;98469.19;;;21.81;50.12
53719;BME280;39616;48.872;9.390;2023-05-29T08:01:00;98461.72;;;22.54;49.46
53719;BME280;39616;48.872;9.390;2023-05-29T08:03:31;98467.59;;;22.03;49.23
53719;BME280;39616;48.872;9.390;2023-05-29T08:06:01;98457.41;;;22.83;48.58
53719;BME280;39616;48.872;9.390;2023-05-29T08:08:31;98460.66;;;22.62;47.88
53719;BME280;39616;48.872;9.390;2023-05-29T08:11:02;98464.34;;;22.20;49.82
53719;BME280;39616;48.872;9.390;2023-05-29T08:13:32;98457.75;;;23.11;47.62
53719;BME280;39616;48.872;9.390;2023-05-29T08:16:03;98463.84;;;23.58;47.46
53719;BME280;39616;48.872;9.390;2023-05-29T08:18:33;98460.66;;;23.22;46.97
53719;BME280;39616;48.872;9.390;2023-05-29T08:21:04;98454.63;;;23.84;47.78
53719;BME280;39616;48.872;9.390;2023-05-29T08:23:35;98448.66;;;23.45;47.02
53719;BME280;39616;48.872;9.390;2023-05-29T08:26:05;98460.44;;;23.34;47.77
53719;BME280;39616;48.872;9.390;2023-05-29T08:28:36;98455.59;;;24.02;46.24
53719;BME280;39616;48.872;9.390;2023-05-29T08:31:06;98448.16;;;24.69;44.42
53719;BME280;39616;48.872;9.390;2023-05-29T08:33:37;98458.88;;;24.74;45.79
53719;BME280;39616;48.872;9.390;2023-05-29T08:36:07;98455.00;;;24.86;45.06
53719;BME280;39616;48.872;9.390;2023-05-29T08:38:38;98453.03;;;24.90;43.41
53719;BME280;39616;48.872;9.390;2023-05-29T08:41:10;98460.38;;;25.26;42.49
53719;BME280;39616;48.872;9.390;2023-05-29T08:43:44;98452.50;;;25.50;41.37
53719;BME280;39616;48.872;9.390;2023-05-29T08:46:14;98461.16;;;24.57;42.83
53719;BME280;39616;48.872;9.390;2023-05-29T08:48:48;98453.13;;;25.08;42.09
53719;BME280;39616;48.872;9.390;2023-05-29T08:51:20;98454.84;;;25.34;41.53
53719;BME280;39616;48.872;9.390;2023-05-29T08:53:53;98451.28;;;25.44;41.59
53719;BME280;39616;48.872;9.390;2023-05-29T08:56:23;98447.38;;;25.56;41.07
53719;BME280;39616;48.872;9.390;2023-05-29T08:58:54;98447.03;;;25.86;39.74
53719;BME280;39616;48.872;9.390;2023-05-29T09:01:24;98456.78;;;25.19;40.40
53719;BME280;39616;48.872;9.390;2023-05-29T09:03:55;98445.72;;;25.47;40.57
53719;BME280;39616;48.872;9.390;2023-05-29T09:06:25;98443.81;;;25.76;37.55
53719;BME280;39616;48.872;9.390;2023-05-29T09:08:56;98450.59;;;26.33;39.35
53719;BME280;39616;48.872;9.390;2023-05-29T09:11:27;98448.22;;;26.24;36.26
53719;BME280;39616;48.872;9.390;2023-05-29T09:13:59;98462.13;;;26.53;36.28
53719;BME280;39616;48.872;9.390;2023-05-29T09:16:29;98459.75;;;26.44;36.09
53719;BME280;39616;48.872;9.390;2023-05-29T09:19:06;98452.56;;;26.32;36.39
53719;BME280;39616;48.872;9.390;2023-05-29T09:21:37;98460.94;;;25.93;37.52
53719;BME280;39616;48.872;9.390;2023-05-29T09:24:08;98457.63;;;25.34;38.76
53719;BME280;39616;48.872;9.390;2023-05-29T09:26:38;98465.31;;;26.15;37.92
53719;BME280;39616;48.872;9.390;2023-05-29T09:29:09;98465.13;;;25.40;38.51
53719;BME280;39616;48.872;9.390;2023-05-29T09:31:45;98464.72;;;24.54;38.75
53719;BME280;39616;48.872;9.390;2023-05-29T09:34:16;98471.22;;;24.83;38.32
53719;BME280;39616;48.872;9.390;2023-05-29T09:36:47;98468.31;;;25.39;37.82
53719;BME280;39616;48.872;9.390;2023-05-29T09:39:17;98472.47;;;24.93;37.70
53719;BME280;39616;48.872;9.390;2023-05-29T09:41:48;98471.50;;;25.41;37.69
53719;BME280;39616;48.872;9.390;2023-05-29T09:44:19;98467.69;;;24.90;37.28
53719;BME280;39616;48.872;9.390;2023-05-29T09:46:50;98468.16;;;24.41;38.09
53719;BME280;39616;48.872;9.390;2023-05-29T09:49:22;98471.31;;;24.98;38.47
53719;BME280;39616;48.872;9.390;2023-05-29T09:51:56;98476.25;;;24.60;37.36
53719;BME280;39616;48.872;9.390;2023-05-29T09:54:29;98470.69;;;25.40;37.25
53719;BME280;39616;48.872;9.390;2023-05-29T09:57:00;98471.63;;;25.98;35.68
53719;BME280;39616;48.872;9.390;2023-05-29T09:59:33;98468.09;;;26.26;35.35
53719;BME280;39616;48.872;9.390;2023-05-29T10:02:04;98467.69;;;26.24;34.87
53719;BME280;39616;48.872;9.390;2023-05-29T10:04:34;98469.28;;;26.07;36.24
53719;BME280;39616;48.872;9.390;2023-05-29T10:07:08;98465.28;;;26.58;35.19
53719;BME280;39616;48.872;9.390;2023-05-29T10:09:44;98466.88;;;24.82;37.25
53719;BME280;39616;48.872;9.390;2023-05-29T10:12:19;98468.72;;;25.34;36.87
53719;BME280;39616;48.872;9.390;2023-05-29T10:14:56;98455.38;;;26.14;34.53
53719;BME280;39616;48.872;9.390;2023-05-29T10:17:34;98451.41;;;26.15;35.31
53719;BME280;39616;48.872;9.390;2023-05-29T10:20:07;98450.63;;;26.25;35.75
53719;BME280;39616;48.872;9.390;2023-05-29T10:22:40;98453.41;;;26.08;36.14
53719;BME280;39616;48.872;9.390;2023-05-29T10:25:17;98457.28;;;25.67;36.07
53719;BME280;39616;48.872;9.390;2023-05-29T10:27:48;98452.97;;;25.95;35.98
53719;BME280;39616;48.872;9.390;2023-05-29T10:36:17;98449.00;;;26.32;34.30
53719;BME280;39616;48.872;9.390;2023-05-29T10:38:48;98451.41;;;25.97;33.99
53719;BME280;39616;48.872;9.390;2023-05-29T10:44:02;98446.88;;;25.25;35.07
53719;BME280;39616;48.872;9.390;2023-05-29T10:49:19;98449.34;;;25.73;34.78
53719;BME280;39616;48.872;9.390;2023-05-29T10:51:50;98447.75;;;25.65;34.39
53719;BME280;39616;48.872;9.390;2023-05-29T10:54:25;98441.41;;;25.64;34.54
53719;BME280;39616;48.872;9.390;2023-05-29T10:56:58;98446.19;;;25.67;34.66
53719;BME280;39616;48.872;9.390;2023-05-29T10:59:28;98451.19;;;25.15;34.96
53719;BME280;39616;48.872;9.390;2023-05-29T11:01:59;98443.06;;;25.80;34.15
53719;BME280;39616;48.872;9.390;2023-05-29T11:04:30;98446.94;;;24.63;35.02
53719;BME280;39616;48.872;9.390;2023-05-29T11:07:02;98430.66;;;25.38;34.06
53719;BME280;39616;48.872;9.390;2023-05-29T11:09:38;98431.44;;;25.35;34.74
53719;BME280;39616;48.872;9.390;2023-05-29T11:12:25;98439.97;;;24.94;33.12
53719;BME280;39616;48.872;9.390;2023-05-29T11:15:07;98435.47;;;25.73;32.69
53719;BME280;39616;48.872;9.390;2023-05-29T11:20:16;98445.06;;;25.90;32.83
53719;BME280;39616;48.872;9.390;2023-05-29T11:22:58;98429.59;;;25.92;32.22
53719;BME280;39616;48.872;9.390;2023-05-29T11:25:33;98444.50;;;25.27;33.89
53719;BME280;39616;48.872;9.390;2023-05-29T11:28:04;98440.22;;;25.58;33.09
53719;BME280;39616;48.872;9.390;2023-05-29T11:30:47;98441.81;;;25.73;32.47
53719;BME280;39616;48.872;9.390;2023-05-29T11:33:24;98462.34;;;25.29;32.08
53719;BME280;39616;48.872;9.390;2023-05-29T11:35:58;98444.03;;;25.14;32.26
53719;BME280;39616;48.872;9.390;2023-05-29T11:38:28;98447.13;;;24.95;32.58
53719;BME280;39616;48.872;9.390;2023-05-29T11:41:01;98436.22;;;25.41;32.73
53719;BME280;39616;48.872;9.390;2023-05-29T11:43:31;98446.25;;;25.89;32.55
53719;BME280;39616;48.872;9.390;2023-05-29T11:46:02;98434.56;;;25.29;31.67
53719;BME280;39616;48.872;9.390;2023-05-29T11:48:32;98445.56;;;25.01;32.65
53719;BME280;39616;48.872;9.390;2023-05-29T11:51:03;98444.97;;;25.61;32.62
53719;BME280;39616;48.872;9.390;2023-05-29T11:53:34;98433.94;;;26.08;30.43
53719;BME280;39616;48.872;9.390;2023-05-29T11:56:08;98435.94;;;25.89;30.50
53719;BME280;39616;48.872;9.390;2023-05-29T11:58:40;98428.38;;;26.29;29.71
53719;BME280;39616;48.872;9.390;2023-05-29T12:01:11;98437.09;;;26.10;28.95
53719;BME280;39616;48.872;9.390;2023-05-29T12:03:41;98435.53;;;26.12;30.36
53719;BME280;39616;48.872;9.390;2023-05-29T12:06:12;98444.25;;;26.21;29.12
53719;BME280;39616;48.872;9.390;2023-05-29T12:08:42;98440.69;;;26.07;29.28
53719;BME280;39616;48.872;9.390;2023-05-29T12:11:13;98433.16;;;26.11;28.70
53719;BME280;39616;48.872;9.390;2023-05-29T12:13:43;98434.75;;;26.01;27.88
53719;BME280;39616;48.872;9.390;2023-05-29T12:16:13;98437.41;;;25.44;29.14
53719;BME280;39616;48.872;9.390;2023-05-29T12:18:44;98444.16;;;25.50;28.76
53719;BME280;39616;48.872;9.390;2023-05-29T12:21:14;98434.72;;;25.90;28.54
53719;BME280;39616;48.872;9.390;2023-05-29T12:23:44;98429.19;;;26.08;28.94
53719;BME280;39616;48.872;9.390;2023-05-29T12:26:15;98434.31;;;25.99;29.09
53719;BME280;39616;48.872;9.390;2023-05-29T12:28:45;98431.50;;;25.63;29.94
53719;BME280;39616;48.872;9.390;2023-05-29T12:31:26;98443.78;;;25.59;29.36
53719;BME280;39616;48.872;9.390;2023-05-29T12:33:59;98433.16;;;25.89;29.21
53719;BME280;39616;48.872;9.390;2023-05-29T12:36:31;98437.91;;;26.10;28.51
53719;BME280;39616;48.872;9.390;2023-05-29T12:39:06;98433.53;;;25.91;29.44
53719;BME280;39616;48.872;9.390;2023-05-29T12:41:39;98430.38;;;26.14;28.99
53719;BME280;39616;48.872;9.390;2023-05-29T12:44:09;98426.41;;;26.08;29.22
53719;BME280;39616;48.872;9.390;2023-05-29T12:46:41;98432.28;;;25.60;29.36
53719;BME280;39616;48.872;9.390;2023-05-29T12:49:16;98441.03;;;25.73;28.42
53719;BME280;39616;48.872;9.390;2023-05-29T12:51:47;98430.75;;;26.02;27.51
53719;BME280;39616;48.872;9.390;2023-05-29T12:54:18;98428.78;;;26.10;28.19
53719;BME280;39616;48.872;9.390;2023-05-29T12:56:48;98429.88;;;25.48;29.17
53719;BME280;39616;48.872;9.390;2023-05-29T12:59:20;98424.41;;;25.84;28.66
53719;BME280;39616;48.872;9.390;2023-05-29T13:01:50;98431.56;;;26.20;29.34
53719;BME280;39616;48.872;9.390;2023-05-29T13:04:22;98428.34;;;26.36;28.37
53719;BME280;39616;48.872;9.390;2023-05-29T13:06:53;98433.16;;;25.86;29.10
53719;BME280;39616;48.872;9.390;2023-05-29T13:09:23;98421.63;;;26.19;29.68
53719;BME280;39616;48.872;9.390;2023-05-29T13:11:53;98432.31;;;26.39;29.78
53719;BME280;39616;48.872;9.390;2023-05-29T13:14:24;98416.88;;;25.88;29.88
53719;BME280;39616;48.872;9.390;2023-05-29T13:16:54;98416.06;;;25.87;29.53
53719;BME280;39616;48.872;9.390;2023-05-29T13:19:24;98415.63;;;25.57;30.19
53719;BME280;39616;48.872;9.390;2023-05-29T13:21:55;98414.09;;;26.09;28.75
53719;BME280;39616;48.872;9.390;2023-05-29T13:24:25;98414.88;;;26.13;28.76
53719;BME280;39616;48.872;9.390;2023-05-29T13:26:56;98403.38;;;26.29;28.75
53719;BME280;39616;48.872;9.390;2023-05-29T13:29:26;98412.47;;;26.44;29.29
53719;BME280;39616;48.872;9.390;2023-05-29T13:31:56;98403.31;;;26.65;29.25
53719;BME280;39616;48.872;9.390;2023-05-29T13:34:27;98402.19;;;26.26;29.73
53719;BME280;39616;48.872;9.390;2023-05-29T13:37:00;98404.97;;;26.19;30.45
53719;BME280;39616;48.872;9.390;2023-05-29T13:39:31;98395.81;;;26.26;29.79
53719;BME280;39616;48.872;9.390;2023-05-29T13:42:01;98410.09;;;26.46;29.50
53719;BME280;39616;48.872;9.390;2023-05-29T13:44:32;98401.31;;;26.58;29.38
53719;BME280;39616;48.872;9.390;2023-05-29T13:47:02;98393.41;;;26.53;29.18
53719;BME280;39616;48.872;9.390;2023-05-29T13:49:34;98394.19;;;26.39;29.98